sensor_id;sensor_type;location;lat;lon;timestamp;pressure;altitude;pressure_sealevel;temperature;humidity
31483;BME280;18103;52.246;8.052;2023-12-20T00:00:17;99897.28;;;5.72;100.00
31483;BME280;18103;52.246;8.052;2023-12-20T00:02:42;99895.69;;;5.70;100.00
31483;BME280;18103;52.246;8.052;2023-12-20T00:05:12;99903.44;;;5.71;100.00
31483;BME280;18103;52.246;8.052;2023-12-20T00:07:40;99900.28;;;5.66;100.00
31483;BME280;18103;52.246;8.052;2023-12-20T00:10:05;99906.75;;;5.60;100.00
31483;BME280;18103;52.246;8.052;2023-12-20T00:12:33;99909.16;;;5.63;100.00
31483;BME280;18103;52.246;8.052;2023-12-20T00:15:02;99912.53;;;5.65;100.00
31483;BME280;18103;52.246;8.052;2023-12-20T00:17:29;99907.50;;;5.62;100.00
31483;BME280;18103;52.246;8.052;2023-12-20T00:19:55;99909.78;;;5.54;100.00
31483;BME280;18103;52.246;8.052;2023-12-20T00:22:20;99896.47;;;5.57;100.00
31483;BME280;18103;52.246;8.052;2023-12-20T00:24:45;99907.50;;;5.62;100.00
31483;BME280;18103;52.246;8.052;2023-12-20T00:27:13;99905.81;;;5.61;100.00
31483;BME280;18103;52.246;8.052;2023-12-20T00:29:39;99908.22;;;5.64;100.00
31483;BME280;18103;52.246;8.052;2023-12-20T00:32:04;99916.97;;;5.51;100.00
31483;BME280;18103;52.246;8.052;2023-12-20T00:34:30;99913.69;;;5.47;100.00
31483;BME280;18103;52.246;8.052;2023-12-20T00:36:55;99905.53;;;5.39;100.00
31483;BME280;18103;52.246;8.052;2023-12-20T00:39:22;99910.34;;;5.45;100.00
31483;BME280;18103;52.246;8.052;2023-12-20T00:41:49;99903.75;;;5.39;100.00
31483;BME280;18103;52.246;8.052;2023-12-20T00:44:14;99905.31;;;5.42;100.00
31483;BME280;18103;52.246;8.052;2023-12-20T00:46:42;99909.44;;;5.46;100.00
31483;BME280;18103;52.246;8.052;2023-12-20T00:49:07;99908.31;;;5.36;100.00
31483;BME280;18103;52.246;8.052;2023-12-20T00:51:32;99905.91;;;5.32;100.00
31483;BME280;18103;52.246;8.052;2023-12-20T00:54:00;99907.50;;;5.35;100.00
31483;BME280;18103;52.246;8.052;2023-12-20T00:56:28;99901.94;;;5.40;100.00
31483;BME280;18103;52.246;8.052;2023-12-20T00:58:53;99907.38;;;5.37;100.00
31483;BME280;18103;52.246;8.052;2023-12-20T01:01:18;99898.06;;;5.32;100.00
31483;BME280;18103;52.246;8.052;2023-12-20T01:03:46;99906.66;;;5.35;100.00
31483;BME280;18103;52.246;8.052;2023-12-20T01:06:12;99896.19;;;5.35;100.00
31483;BME280;18103;52.246;8.052;2023-12-20T01:08:37;99895.06;;;5.24;100.00
31483;BME280;18103;52.246;8.052;2023-12-20T01:11:08;99890.50;;;5.28;100.00
31483;BME280;18103;52.246;8.052;2023-12-20T01:13:36;99884.13;;;5.32;100.00
31483;BME280;18103;52.246;8.052;2023-12-20T01:16:04;99893.22;;;5.26;100.00
31483;BME280;18103;52.246;8.052;2023-12-20T01:18:29;99893.44;;;5.23;100.00
31483;BME280;18103;52.246;8.052;2023-12-20T01:20:57;99890.34;;;5.17;100.00
31483;BME280;18103;52.246;8.052;2023-12-20T01:23:26;99904.16;;;5.19;100.00
31483;BME280;18103;52.246;8.052;2023-12-20T01:25:53;99904.06;;;5.20;100.00
31483;BME280;18103;52.246;8.052;2023-12-20T01:28:19;99901.53;;;5.19;100.00
31483;BME280;18103;52.246;8.052;2023-12-20T01:30:50;99904.25;;;5.17;100.00
31483;BME280;18103;52.246;8.052;2023-12-20T01:33:15;99902.13;;;5.09;100.00
31483;BME280;18103;52.246;8.052;2023-12-20T01:35:43;99901.28;;;5.09;100.00
31483;BME280;18103;52.246;8.052;2023-12-20T01:38:08;99893.16;;;5.13;100.00
31483;BME280;18103;52.246;8.052;2023-12-20T01:40:34;99886.69;;;5.19;100.00
31483;BME280;18103;52.246;8.052;2023-12-20T01:43:07;99879.53;;;5.08;100.00
31483;BME280;18103;52.246;8.052;2023-12-20T01:45:33;99870.16;;;5.19;100.00
31483;BME280;18103;52.246;8.052;2023-12-20T01:47:59;99885.13;;;5.17;100.00
31483;BME280;18103;52.246;8.052;2023-12-20T01:50:28;99882.88;;;5.10;100.00
31483;BME280;18103;52.246;8.052;2023-12-20T01:52:58;99888.00;;;5.12;100.00
31483;BME280;18103;52.246;8.052;2023-12-20T01:55:31;99879.72;;;5.05;100.00
31483;BME280;18103;52.246;8.052;2023-12-20T01:58:00;99883.28;;;5.04;100.00
31483;BME280;18103;52.246;8.052;2023-12-20T02:00:32;99883.94;;;5.08;100.00
31483;BME280;18103;52.246;8.052;2023-12-20T02:03:01;99883.13;;;5.20;100.00
31483;BME280;18103;52.246;8.052;2023-12-20T02:05:27;99882.31;;;5.20;100.00
31483;BME280;18103;52.246;8.052;2023-12-20T02:07:53;99881.84;;;5.13;100.00
31483;BME280;18103;52.246;8.052;2023-12-20T02:10:21;99879.06;;;5.02;100.00
31483;BME280;18103;52.246;8.052;2023-12-20T02:12:47;99875.03;;;5.10;100.00
31483;BME280;18103;52.246;8.052;2023-12-20T02:15:14;99876.84;;;4.95;100.00
31483;BME280;18103;52.246;8.052;2023-12-20T02:17:42;99877.88;;;4.93;100.00
31483;BME280;18103;52.246;8.052;2023-12-20T02:20:12;99868.66;;;4.87;100.00
31483;BME280;18103;52.246;8.052;2023-12-20T02:22:39;99872.28;;;4.85;100.00
31483;BME280;18103;52.246;8.052;2023-12-20T02:25:05;99878.59;;;4.95;100.00
31483;BME280;18103;52.246;8.052;2023-12-20T02:27:31;99879.84;;;4.89;100.00
31483;BME280;18103;52.246;8.052;2023-12-20T02:29:56;99875.00;;;4.83;100.00
31483;BME280;18103;52.246;8.052;2023-12-20T02:32:22;99880.59;;;4.91;100.00
31483;BME280;18103;52.246;8.052;2023-12-20T02:34:54;99873.31;;;4.82;100.00
31483;BME280;18103;52.246;8.052;2023-12-20T02:37:22;99874.34;;;4.79;100.00
31483;BME280;18103;52.246;8.052;2023-12-20T02:39:47;99870.78;;;4.80;100.00
31483;BME280;18103;52.246;8.052;2023-12-20T02:42:15;99871.47;;;4.84;100.00
31483;BME280;18103;52.246;8.052;2023-12-20T02:44:40;99872.38;;;4.83;100.00
31483;BME280;18103;52.246;8.052;2023-12-20T02:47:06;99867.25;;;4.82;100.00
31483;BME280;18103;52.246;8.052;2023-12-20T02:49:33;99856.13;;;4.78;100.00
31483;BME280;18103;52.246;8.052;2023-12-20T02:52:01;99861.16;;;4.81;100.00
31483;BME280;18103;52.246;8.052;2023-12-20T02:54:26;99864.34;;;4.86;100.00
31483;BME280;18103;52.246;8.052;2023-12-20T02:56:52;99859.78;;;4.90;100.00
31483;BME280;18103;52.246;8.052;2023-12-20T02:59:17;99851.81;;;4.91;100.00
31483;BME280;18103;52.246;8.052;2023-12-20T03:01:45;99853.97;;;4.85;100.00
31483;BME280;18103;52.246;8.052;2023-12-20T03:04:13;99865.47;;;4.82;100.00
31483;BME280;18103;52.246;8.052;2023-12-20T03:06:39;99843.72;;;4.82;100.00
31483;BME280;18103;52.246;8.052;2023-12-20T03:09:06;99837.63;;;4.81;100.00
31483;BME280;18103;52.246;8.052;2023-12-20T03:11:32;99842.31;;;4.76;100.00
31483;BME280;18103;52.246;8.052;2023-12-20T03:13:57;99844.75;;;4.79;100.00
31483;BME280;18103;52.246;8.052;2023-12-20T03:16:25;99839.22;;;4.84;100.00
31483;BME280;18103;52.246;8.052;2023-12-20T03:18:51;99848.69;;;4.72;100.00
31483;BME280;18103;52.246;8.052;2023-12-20T03:21:16;99840.25;;;4.81;100.00
31483;BME280;18103;52.246;8.052;2023-12-20T03:23:41;99833.94;;;4.71;100.00
31483;BME280;18103;52.246;8.052;2023-12-20T03:26:08;99837.84;;;4.78;100.00
31483;BME280;18103;52.246;8.052;2023-12-20T03:28:34;99834.84;;;4.70;100.00
31483;BME280;18103;52.246;8.052;2023-12-20T03:31:03;99833.72;;;4.74;100.00
31483;BME280;18103;52.246;8.052;2023-12-20T03:33:29;99831.41;;;4.69;100.00
31483;BME280;18103;52.246;8.052;2023-12-20T03:35:54;99829.44;;;4.73;100.00
31483;BME280;18103;52.246;8.052;2023-12-20T03:38:20;99826.66;;;4.76;100.00
31483;BME280;18103;52.246;8.052;2023-12-20T03:40:45;99820.94;;;4.69;100.00
31483;BME280;18103;52.246;8.052;2023-12-20T03:43:11;99815.63;;;4.71;100.00
31483;BME280;18103;52.246;8.052;2023-12-20T03:45:36;99818.81;;;4.61;100.00
31483;BME280;18103;52.246;8.052;2023-12-20T03:48:02;99815.38;;;4.61;100.00
31483;BME280;18103;52.246;8.052;2023-12-20T03:50:32;99821.25;;;4.65;100.00
31483;BME280;18103;52.246;8.052;2023-12-20T03:52:59;99812.53;;;4.64;100.00
31483;BME280;18103;52.246;8.052;2023-12-20T03:55:27;99825.34;;;4.69;100.00
31483;BME280;18103;52.246;8.052;2023-12-20T03:57:53;99813.88;;;4.57;100.00
31483;BME280;18103;52.246;8.052;2023-12-20T04:00:20;99802.66;;;4.69;100.00
31483;BME280;18103;52.246;8.052;2023-12-20T04:02:46;99815.38;;;4.61;100.00
31483;BME280;18103;52.246;8.052;2023-12-20T04:05:13;99820.38;;;4.64;100.00
31483;BME280;18103;52.246;8.052;2023-12-20T04:07:39;99821.81;;;4.55;100.00
31483;BME280;18103;52.246;8.052;2023-12-20T04:10:05;99818.06;;;4.59;100.00
31483;BME280;18103;52.246;8.052;2023-12-20T04:12:33;99823.88;;;4.65;100.00
31483;BME280;18103;52.246;8.052;2023-12-20T04:15:01;99824.78;;;4.63;100.00
31483;BME280;18103;52.246;8.052;2023-12-20T04:17:34;99824.78;;;4.63;100.00
31483;BME280;18103;52.246;8.052;2023-12-20T04:20:04;99819.56;;;4.63;100.00
31483;BME280;18103;52.246;8.052;2023-12-20T04:22:29;99814.34;;;4.63;100.00
31483;BME280;18103;52.246;8.052;2023-12-20T04:24:54;99810.03;;;4.62;100.00
31483;BME280;18103;52.246;8.052;2023-12-20T04:27:20;99809.22;;;4.62;100.00
31483;BME280;18103;52.246;8.052;2023-12-20T04:29:46;99807.41;;;4.62;100.00
31483;BME280;18103;52.246;8.052;2023-12-20T04:32:11;99812.66;;;4.62;100.00
31483;BME280;18103;52.246;8.052;2023-12-20T04:34:39;99815.91;;;4.66;100.00
31483;BME280;18103;52.246;8.052;2023-12-20T04:37:06;99811.81;;;4.62;100.00
31483;BME280;18103;52.246;8.052;2023-12-20T04:39:32;99815.25;;;4.62;100.00
31483;BME280;18103;52.246;8.052;2023-12-20T04:42:00;99815.25;;;4.62;100.00
31483;BME280;18103;52.246;8.052;2023-12-20T04:44:28;99814.44;;;4.62;100.00
31483;BME280;18103;52.246;8.052;2023-12-20T04:46:53;99816.09;;;4.63;100.00
31483;BME280;18103;52.246;8.052;2023-12-20T04:49:19;99798.75;;;4.62;100.00
31483;BME280;18103;52.246;8.052;2023-12-20T04:51:44;99798.66;;;4.63;100.00
31483;BME280;18103;52.246;8.052;2023-12-20T04:54:09;99802.00;;;4.66;100.00
31483;BME280;18103;52.246;8.052;2023-12-20T04:56:38;99809.22;;;4.62;100.00
31483;BME280;18103;52.246;8.052;2023-12-20T04:59:04;99802.84;;;4.66;100.00
31483;BME280;18103;52.246;8.052;2023-12-20T05:01:29;99799.13;;;4.70;100.00
31483;BME280;18103;52.246;8.052;2023-12-20T05:03:58;99792.41;;;4.66;100.00
31483;BME280;18103;52.246;8.052;2023-12-20T05:06:26;99798.56;;;4.65;100.00
31483;BME280;18103;52.246;8.052;2023-12-20T05:08:51;99801.38;;;4.62;100.00
31483;BME280;18103;52.246;8.052;2023-12-20T05:11:22;99797.63;;;4.66;100.00
31483;BME280;18103;52.246;8.052;2023-12-20T05:13:50;99787.06;;;4.68;100.00
31483;BME280;18103;52.246;8.052;2023-12-20T05:16:15;99792.66;;;4.61;100.00
31483;BME280;18103;52.246;8.052;2023-12-20T05:18:44;99797.06;;;4.61;100.00
31483;BME280;18103;52.246;8.052;2023-12-20T05:21:09;99796.25;;;4.60;100.00
31483;BME280;18103;52.246;8.052;2023-12-20T05:23:35;99790.34;;;4.57;100.00
31483;BME280;18103;52.246;8.052;2023-12-20T05:26:00;99787.63;;;4.58;100.00
31483;BME280;18103;52.246;8.052;2023-12-20T05:28:28;99799.56;;;4.62;100.00
31483;BME280;18103;52.246;8.052;2023-12-20T05:30:54;99795.38;;;4.60;100.00
31483;BME280;18103;52.246;8.052;2023-12-20T05:33:19;99803.88;;;4.63;100.00
31483;BME280;18103;52.246;8.052;2023-12-20T05:35:46;99801.16;;;4.65;100.00
31483;BME280;18103;52.246;8.052;2023-12-20T05:38:12;99793.53;;;4.62;100.00
31483;BME280;18103;52.246;8.052;2023-12-20T05:40:40;99796.97;;;4.62;100.00
31483;BME280;18103;52.246;8.052;2023-12-20T05:43:08;99787.28;;;4.65;100.00
31483;BME280;18103;52.246;8.052;2023-12-20T05:45:33;99797.72;;;4.65;100.00
31483;BME280;18103;52.246;8.052;2023-12-20T05:47:59;99793.13;;;4.68;100.00
31483;BME280;18103;52.246;8.052;2023-12-20T05:50:24;99795.84;;;4.67;100.00
31483;BME280;18103;52.246;8.052;2023-12-20T05:52:52;99801.25;;;4.63;100.00
31483;BME280;18103;52.246;8.052;2023-12-20T05:55:21;99802.09;;;4.64;100.00
31483;BME280;18103;52.246;8.052;2023-12-20T05:57:47;99793.44;;;4.63;100.00
31483;BME280;18103;52.246;8.052;2023-12-20T06:00:13;99796.66;;;4.67;100.00
31483;BME280;18103;52.246;8.052;2023-12-20T06:02:39;99790.81;;;4.63;100.00
31483;BME280;18103;52.246;8.052;2023-12-20T06:05:05;99791.16;;;4.72;100.00
31483;BME280;18103;52.246;8.052;2023-12-20T06:07:33;99784.25;;;4.71;100.00
31483;BME280;18103;52.246;8.052;2023-12-20T06:09:58;99780.72;;;4.72;100.00
31483;BME280;18103;52.246;8.052;2023-12-20T06:12:23;99792.09;;;4.71;100.00
31483;BME280;18103;52.246;8.052;2023-12-20T06:14:54;99784.16;;;4.72;100.00
31483;BME280;18103;52.246;8.052;2023-12-20T06:17:22;99781.16;;;4.78;100.00
31483;BME280;18103;52.246;8.052;2023-12-20T06:19:47;99791.69;;;4.77;100.00
31483;BME280;18103;52.246;8.052;2023-12-20T06:22:14;99795.28;;;4.76;100.00
31483;BME280;18103;52.246;8.052;2023-12-20T06:24:41;99792.56;;;4.77;100.00
31483;BME280;18103;52.246;8.052;2023-12-20T06:27:06;99787.22;;;4.79;100.00
31483;BME280;18103;52.246;8.052;2023-12-20T06:29:32;99795.78;;;4.81;100.00
31483;BME280;18103;52.246;8.052;2023-12-20T06:31:57;99801.63;;;4.72;100.00
31483;BME280;18103;52.246;8.052;2023-12-20T06:34:23;99802.81;;;4.80;100.00
31483;BME280;18103;52.246;8.052;2023-12-20T06:36:48;99796.09;;;4.76;100.00
31483;BME280;18103;52.246;8.052;2023-12-20T06:39:13;99792.56;;;4.77;100.00
31483;BME280;18103;52.246;8.052;2023-12-20T06:41:39;99786.19;;;4.82;100.00
31483;BME280;18103;52.246;8.052;2023-12-20T06:44:05;99790.56;;;4.81;100.00
31483;BME280;18103;52.246;8.052;2023-12-20T06:46:30;99791.63;;;4.78;100.00
31483;BME280;18103;52.246;8.052;2023-12-20T06:48:56;99791.31;;;4.83;100.00
31483;BME280;18103;52.246;8.052;2023-12-20T06:51:24;99782.44;;;4.86;100.00
31483;BME280;18103;52.246;8.052;2023-12-20T06:53:51;99783.59;;;4.82;100.00
31483;BME280;18103;52.246;8.052;2023-12-20T06:56:19;99784.63;;;4.79;100.00
31483;BME280;18103;52.246;8.052;2023-12-20T06:58:45;99797.59;;;4.80;100.00
31483;BME280;18103;52.246;8.052;2023-12-20T07:01:11;99781.69;;;4.84;100.00
31483;BME280;18103;52.246;8.052;2023-12-20T07:03:37;99785.41;;;4.94;100.00
31483;BME280;18103;52.246;8.052;2023-12-20T07:06:03;99779.06;;;4.84;100.00
31483;BME280;18103;52.246;8.052;2023-12-20T07:08:31;99772.00;;;4.86;100.00
31483;BME280;18103;52.246;8.052;2023-12-20T07:10:56;99772.91;;;4.85;100.00
31483;BME280;18103;52.246;8.052;2023-12-20T07:13:22;99773.13;;;4.82;100.00
31483;BME280;18103;52.246;8.052;2023-12-20T07:15:50;99778.16;;;4.85;100.00
31483;BME280;18103;52.246;8.052;2023-12-20T07:18:15;99776.25;;;4.87;100.00
31483;BME280;18103;52.246;8.052;2023-12-20T07:20:43;99766.00;;;4.84;100.00
31483;BME280;18103;52.246;8.052;2023-12-20T07:23:11;99774.19;;;4.92;100.00
31483;BME280;18103;52.246;8.052;2023-12-20T07:25:36;99776.72;;;4.93;100.00
31483;BME280;18103;52.246;8.052;2023-12-20T07:28:05;99773.91;;;4.96;100.00
31483;BME280;18103;52.246;8.052;2023-12-20T07:30:33;99761.53;;;4.86;100.00
31483;BME280;18103;52.246;8.052;2023-12-20T07:32:58;99771.88;;;4.87;100.00
31483;BME280;18103;52.246;8.052;2023-12-20T07:35:26;99776.91;;;4.90;100.00
31483;BME280;18103;52.246;8.052;2023-12-20T07:37:54;99780.47;;;4.89;100.00
31483;BME280;18103;52.246;8.052;2023-12-20T07:40:19;99780.66;;;4.86;100.00
31483;BME280;18103;52.246;8.052;2023-12-20T07:42:48;99771.78;;;4.89;100.00
31483;BME280;18103;52.246;8.052;2023-12-20T07:45:18;99775.22;;;4.89;100.00
31483;BME280;18103;52.246;8.052;2023-12-20T07:47:46;99777.75;;;4.91;100.00
31483;BME280;18103;52.246;8.052;2023-12-20T07:50:14;99781.13;;;4.93;100.00
31483;BME280;18103;52.246;8.052;2023-12-20T07:52:42;99781.22;;;4.91;100.00
31483;BME280;18103;52.246;8.052;2023-12-20T07:55:07;99779.34;;;4.93;100.00
31483;BME280;18103;52.246;8.052;2023-12-20T07:57:35;99764.50;;;4.94;100.00
31483;BME280;18103;52.246;8.052;2023-12-20T08:00:03;99770.44;;;4.96;100.00
31483;BME280;18103;52.246;8.052;2023-12-20T08:02:29;99766.16;;;4.95;100.00
31483;BME280;18103;52.246;8.052;2023-12-20T08:04:54;99770.88;;;4.90;100.00
31483;BME280;18103;52.246;8.052;2023-12-20T08:07:22;99765.97;;;4.98;100.00
31483;BME280;18103;52.246;8.052;2023-12-20T08:09:47;99772.75;;;5.01;100.00
31483;BME280;18103;52.246;8.052;2023-12-20T08:12:15;99767.44;;;5.02;100.00
31483;BME280;18103;52.246;8.052;2023-12-20T08:14:42;99763.53;;;4.95;100.00
31483;BME280;18103;52.246;8.052;2023-12-20T08:17:07;99759.06;;;4.97;100.00
31483;BME280;18103;52.246;8.052;2023-12-20T08:19:37;99764.28;;;4.97;100.00
31483;BME280;18103;52.246;8.052;2023-12-20T08:22:05;99756.25;;;5.00;100.00
31483;BME280;18103;52.246;8.052;2023-12-20T08:24:32;99755.31;;;5.01;100.00
31483;BME280;18103;52.246;8.052;2023-12-20T08:27:00;99759.50;;;5.04;100.00
31483;BME280;18103;52.246;8.052;2023-12-20T08:29:28;99760.34;;;5.04;100.00
31483;BME280;18103;52.246;8.052;2023-12-20T08:31:56;99750.81;;;5.03;100.00
31483;BME280;18103;52.246;8.052;2023-12-20T08:34:24;99753.63;;;5.00;100.00
31483;BME280;18103;52.246;8.052;2023-12-20T08:36:54;99760.66;;;5.00;100.00
31483;BME280;18103;52.246;8.052;2023-12-20T08:39:20;99754.19;;;5.05;100.00
31483;BME280;18103;52.246;8.052;2023-12-20T08:41:45;99761.16;;;5.05;100.00
31483;BME280;18103;52.246;8.052;2023-12-20T08:44:10;99760.22;;;5.06;100.00
31483;BME280;18103;52.246;8.052;2023-12-20T08:46:36;99761.59;;;5.11;100.00
31483;BME280;18103;52.246;8.052;2023-12-20T08:49:02;99751.97;;;5.12;100.00
31483;BME280;18103;52.246;8.052;2023-12-20T08:51:30;99753.16;;;5.08;100.00
31483;BME280;18103;52.246;8.052;2023-12-20T08:53:55;99746.94;;;5.09;100.00
31483;BME280;18103;52.246;8.052;2023-12-20T08:56:21;99753.88;;;5.10;100.00
31483;BME280;18103;52.246;8.052;2023-12-20T08:58:48;99737.25;;;5.11;100.00
31483;BME280;18103;52.246;8.052;2023-12-20T09:01:14;99746.84;;;5.10;100.00
31483;BME280;18103;52.246;8.052;2023-12-20T09:03:44;99744.88;;;5.14;100.00
31483;BME280;18103;52.246;8.052;2023-12-20T09:06:10;99728.63;;;5.09;100.00
31483;BME280;18103;52.246;8.052;2023-12-20T09:08:35;99733.28;;;5.18;100.00
31483;BME280;18103;52.246;8.052;2023-12-20T09:11:06;99736.00;;;5.17;100.00
31483;BME280;18103;52.246;8.052;2023-12-20T09:13:32;99718.81;;;5.12;100.00
31483;BME280;18103;52.246;8.052;2023-12-20T09:15:57;99727.59;;;5.11;100.00
31483;BME280;18103;52.246;8.052;2023-12-20T09:18:23;99727.13;;;5.19;100.00
31483;BME280;18103;52.246;8.052;2023-12-20T09:20:51;99715.06;;;5.17;100.00
31483;BME280;18103;52.246;8.052;2023-12-20T09:23:16;99712.88;;;5.23;100.00
31483;BME280;18103;52.246;8.052;2023-12-20T09:25:43;99713.19;;;5.19;100.00
31483;BME280;18103;52.246;8.052;2023-12-20T09:28:13;99714.53;;;5.24;100.00
31483;BME280;18103;52.246;8.052;2023-12-20T09:30:38;99714.75;;;5.21;100.00
31483;BME280;18103;52.246;8.052;2023-12-20T09:33:05;99706.69;;;5.24;100.00
31483;BME280;18103;52.246;8.052;2023-12-20T09:35:33;99704.94;;;5.25;100.00
31483;BME280;18103;52.246;8.052;2023-12-20T09:38:02;99702.44;;;5.23;100.00
31483;BME280;18103;52.246;8.052;2023-12-20T09:40:27;99706.50;;;5.27;100.00
31483;BME280;18103;52.246;8.052;2023-12-20T09:43:03;99703.78;;;5.29;100.00
31483;BME280;18103;52.246;8.052;2023-12-20T09:45:33;99711.00;;;5.25;100.00
31483;BME280;18103;52.246;8.052;2023-12-20T09:48:01;99709.31;;;5.24;100.00
31483;BME280;18103;52.246;8.052;2023-12-20T09:50:30;99709.22;;;5.26;100.00
31483;BME280;18103;52.246;8.052;2023-12-20T10:03:00;99715.91;;;5.30;100.00
31483;BME280;18103;52.246;8.052;2023-12-20T10:05:30;99713.50;;;5.27;100.00
31483;BME280;18103;52.246;8.052;2023-12-20T10:07:56;99714.16;;;5.30;100.00
31483;BME280;18103;52.246;8.052;2023-12-20T10:10:22;99723.66;;;5.31;100.00
31483;BME280;18103;52.246;8.052;2023-12-20T10:13:07;99730.69;;;5.31;100.00
31483;BME280;18103;52.246;8.052;2023-12-20T10:15:36;99717.59;;;5.31;100.00
31483;BME280;18103;52.246;8.052;2023-12-20T10:18:07;99717.50;;;5.32;100.00
31483;BME280;18103;52.246;8.052;2023-12-20T10:20:33;99730.78;;;5.29;100.00
31483;BME280;18103;52.246;8.052;2023-12-20T10:23:02;99711.44;;;5.32;100.00
31483;BME280;18103;52.246;8.052;2023-12-20T10:25:27;99717.50;;;5.32;100.00
31483;BME280;18103;52.246;8.052;2023-12-20T10:28:15;99712.16;;;5.34;100.00
31483;BME280;18103;52.246;8.052;2023-12-20T10:30:44;99712.03;;;5.36;100.00
31483;BME280;18103;52.246;8.052;2023-12-20T10:33:10;99718.97;;;5.37;100.00
31483;BME280;18103;52.246;8.052;2023-12-20T10:35:39;99708.50;;;5.37;100.00
31483;BME280;18103;52.246;8.052;2023-12-20T10:38:05;99709.44;;;5.36;100.00
31483;BME280;18103;52.246;8.052;2023-12-20T10:40:34;99697.00;;;5.39;100.00
31483;BME280;18103;52.246;8.052;2023-12-20T10:43:00;99685.69;;;5.39;100.00
31483;BME280;18103;52.246;8.052;2023-12-20T10:45:29;99686.53;;;5.39;100.00
31483;BME280;18103;52.246;8.052;2023-12-20T10:47:57;99690.72;;;5.42;100.00
31483;BME280;18103;52.246;8.052;2023-12-20T10:50:27;99689.03;;;5.41;100.00
31483;BME280;18103;52.246;8.052;2023-12-20T10:52:58;99678.25;;;5.45;100.00
31483;BME280;18103;52.246;8.052;2023-12-20T10:55:26;99680.47;;;5.52;100.00
31483;BME280;18103;52.246;8.052;2023-12-20T10:57:56;99667.03;;;5.56;100.00
31483;BME280;18103;52.246;8.052;2023-12-20T11:00:25;99677.94;;;5.63;100.00
31483;BME280;18103;52.246;8.052;2023-12-20T11:02:57;99671.25;;;5.59;100.00
31483;BME280;18103;52.246;8.052;2023-12-20T11:05:38;99677.28;;;5.59;100.00
31483;BME280;18103;52.246;8.052;2023-12-20T11:08:17;99672.81;;;5.61;100.00
31483;BME280;18103;52.246;8.052;2023-12-20T11:10:50;99681.28;;;5.65;100.00
31483;BME280;18103;52.246;8.052;2023-12-20T11:13:23;99671.34;;;5.70;100.00
31483;BME280;18103;52.246;8.052;2023-12-20T11:15:52;99671.22;;;5.72;100.00
31483;BME280;18103;52.246;8.052;2023-12-20T11:18:30;99663.03;;;5.76;100.00
31483;BME280;18103;52.246;8.052;2023-12-20T11:21:06;99663.47;;;5.70;100.00
31483;BME280;18103;52.246;8.052;2023-12-20T11:23:32;99663.38;;;5.72;100.00
31483;BME280;18103;52.246;8.052;2023-12-20T11:25:59;99653.75;;;5.72;100.00
31483;BME280;18103;52.246;8.052;2023-12-20T11:28:26;99656.97;;;5.76;100.00
31483;BME280;18103;52.246;8.052;2023-12-20T11:30:55;99651.97;;;5.73;100.00
31483;BME280;18103;52.246;8.052;2023-12-20T11:35:59;99657.09;;;5.74;100.00
31483;BME280;18103;52.246;8.052;2023-12-20T11:38:25;99658.34;;;5.69;100.00
31483;BME280;18103;52.246;8.052;2023-12-20T11:40:53;99659.50;;;5.64;100.00
31483;BME280;18103;52.246;8.052;2023-12-20T11:43:38;99647.06;;;5.68;100.00
31483;BME280;18103;52.246;8.052;2023-12-20T11:46:08;99640.25;;;5.65;100.00
31483;BME280;18103;52.246;8.052;2023-12-20T11:48:37;99645.16;;;5.70;100.00
31483;BME280;18103;52.246;8.052;2023-12-20T11:51:12;99647.13;;;5.66;100.00
31483;BME280;18103;52.246;8.052;2023-12-20T11:53:39;99648.09;;;5.65;100.00
31483;BME280;18103;52.246;8.052;2023-12-20T11:56:07;99645.78;;;5.61;100.00
31483;BME280;18103;52.246;8.052;2023-12-20T11:58:36;99647.56;;;5.60;100.00
31483;BME280;18103;52.246;8.052;2023-12-20T12:01:04;99657.00;;;5.63;100.00
31483;BME280;18103;52.246;8.052;2023-12-20T12:03:34;99671.13;;;5.73;100.00
31483;BME280;18103;52.246;8.052;2023-12-20T12:06:00;99681.91;;;5.69;100.00
31483;BME280;18103;52.246;8.052;2023-12-20T12:08:28;99690.09;;;5.64;100.00
31483;BME280;18103;52.246;8.052;2023-12-20T12:10:56;99699.72;;;5.51;100.00
31483;BME280;18103;52.246;8.052;2023-12-20T12:13:27;99695.94;;;5.42;100.00
31483;BME280;18103;52.246;8.052;2023-12-20T12:15:53;99687.88;;;5.45;100.00
31483;BME280;18103;52.246;8.052;2023-12-20T12:18:21;99671.31;;;5.31;100.00
31483;BME280;18103;52.246;8.052;2023-12-20T12:20:47;99672.91;;;5.34;100.00
31483;BME280;18103;52.246;8.052;2023-12-20T12:23:12;99679.38;;;5.28;100.00
31483;BME280;18103;52.246;8.052;2023-12-20T12:25:37;99689.25;;;5.25;100.00
31483;BME280;18103;52.246;8.052;2023-12-20T12:28:03;99690.72;;;5.29;100.00
31483;BME280;18103;52.246;8.052;2023-12-20T12:30:28;99690.50;;;5.32;100.00
31483;BME280;18103;52.246;8.052;2023-12-20T12:32:56;99684.94;;;5.24;100.00
31483;BME280;18103;52.246;8.052;2023-12-20T12:35:22;99676.06;;;5.26;100.00
31483;BME280;18103;52.246;8.052;2023-12-20T12:37:51;99659.47;;;5.13;100.00
31483;BME280;18103;52.246;8.052;2023-12-20T12:40:19;99661.06;;;5.16;100.00
31483;BME280;18103;52.246;8.052;2023-12-20T12:42:47;99648.09;;;5.14;100.00
31483;BME280;18103;52.246;8.052;2023-12-20T12:45:15;99644.72;;;5.12;100.00
31483;BME280;18103;52.246;8.052;2023-12-20T12:47:42;99654.03;;;5.16;100.00
31483;BME280;18103;52.246;8.052;2023-12-20T12:50:10;99656.59;;;5.18;100.00
31483;BME280;18103;52.246;8.052;2023-12-20T12:52:35;99657.09;;;5.10;100.00
31483;BME280;18103;52.246;8.052;2023-12-20T12:55:03;99660.63;;;5.22;100.00
31483;BME280;18103;52.246;8.052;2023-12-20T12:57:30;99653.75;;;5.21;100.00
31483;BME280;18103;52.246;8.052;2023-12-20T12:59:58;99655.72;;;5.17;100.00
31483;BME280;18103;52.246;8.052;2023-12-20T13:02:23;99652.38;;;5.15;100.00
31483;BME280;18103;52.246;8.052;2023-12-20T13:04:49;99655.72;;;5.17;100.00
31483;BME280;18103;52.246;8.052;2023-12-20T13:07:14;99652.91;;;5.20;100.00
31483;BME280;18103;52.246;8.052;2023-12-20T13:09:40;99640.34;;;5.12;100.00
31483;BME280;18103;52.246;8.052;2023-12-20T13:12:06;99630.41;;;5.18;100.00